Time;durP1;ratioP1;P1;durP2;ratioP2;P2;SDS_P1;SDS_P2;PMS_P1;PMS_P2;Temp;Humidity;BMP_temperature;BMP_pressure;BME280_temperature;BME280_humidity;BME280_pressure;Samples;Min_cycle;Max_cycle;Signal;HPM_P1;HPM_P2
2022/07/13 00:00:36;;;;;;;1.87;1.70;;;;;;;;;;1746259;80;22226;-63
2022/07/13 00:03:02;;;;;;;1.70;1.60;;;;;;;;;;1743491;80;21039;-64
2022/07/13 00:05:28;;;;;;;1.52;1.42;;;;;;;;;;1747752;80;21113;-63
2022/07/13 00:07:55;;;;;;;2.47;1.65;;;;;;;;;;1746940;80;21087;-64
2022/07/13 00:10:22;;;;;;;1.90;1.70;;;;;;;;;;1745862;80;21043;-64
2022/07/13 00:12:48;;;;;;;3.02;1.60;;;;;;;;;;1745560;80;21467;-63
2022/07/13 00:15:14;;;;;;;2.70;1.62;;;;;;;;;;1700263;83;21068;-63
2022/07/13 00:17:40;;;;;;;2.37;1.60;;;;;;;;;;1689110;83;21044;-63
2022/07/13 00:20:09;;;;;;;3.52;1.60;;;;;;;;;;1689396;83;21430;-63
2022/07/13 00:22:36;;;;;;;2.47;1.70;;;;;;;;;;1691828;83;21091;-63
2022/07/13 00:25:02;;;;;;;2.00;1.80;;;;;;;;;;1688716;83;21096;-63
2022/07/13 00:27:29;;;;;;;3.25;1.92;;;;;;;;;;1686992;83;21029;-63
2022/07/13 00:29:55;;;;;;;1.65;1.55;;;;;;;;;;1690412;83;21581;-63
2022/07/13 00:32:21;;;;;;;2.77;1.60;;;;;;;;;;1691716;83;21073;-64
2022/07/13 00:34:47;;;;;;;1.80;1.40;;;;;;;;;;1695242;83;21537;-64
2022/07/13 00:37:13;;;;;;;1.85;1.40;;;;;;;;;;1690804;83;21128;-63
2022/07/13 00:39:39;;;;;;;1.60;1.50;;;;;;;;;;1685012;83;21089;-63
2022/07/13 00:42:06;;;;;;;2.05;1.55;;;;;;;;;;1670309;83;21074;-64
2022/07/13 00:44:32;;;;;;;1.70;1.35;;;;;;;;;;1676800;83;21038;-63
2022/07/13 00:46:58;;;;;;;2.67;1.45;;;;;;;;;;1674517;83;21124;-63
2022/07/13 00:49:24;;;;;;;2.22;1.52;;;;;;;;;;1674313;83;21120;-64
2022/07/13 00:51:51;;;;;;;1.70;1.40;;;;;;;;;;1671419;83;21109;-63
2022/07/13 00:54:18;;;;;;;2.52;1.80;;;;;;;;;;1673820;83;21069;-63
2022/07/13 00:56:45;;;;;;;1.75;1.42;;;;;;;;;;1671586;83;21073;-63
2022/07/13 00:59:12;;;;;;;2.72;1.70;;;;;;;;;;1678757;83;21147;-63
2022/07/13 01:04:25;;;;;;;2.10;1.50;;;;;;;;;;1732152;80;75293;-65
2022/07/13 01:06:53;;;;;;;2.95;1.60;;;;;;;;;;1741683;81;21091;-66
2022/07/13 01:09:20;;;;;;;3.25;1.60;;;;;;;;;;1738223;81;21020;-66
2022/07/13 01:11:47;;;;;;;1.98;1.55;;;;;;;;;;1733930;81;21130;-66
2022/07/13 01:14:13;;;;;;;3.17;1.57;;;;;;;;;;1710743;82;21051;-66
2022/07/13 01:16:40;;;;;;;1.55;1.45;;;;;;;;;;1711725;83;21072;-66
2022/07/13 01:19:07;;;;;;;2.52;1.70;;;;;;;;;;1700905;83;21070;-66
2022/07/13 01:21:34;;;;;;;2.05;1.42;;;;;;;;;;1695712;83;21506;-66
2022/07/13 01:24:00;;;;;;;1.70;1.50;;;;;;;;;;1692476;84;21580;-66
2022/07/13 01:26:26;;;;;;;6.92;1.80;;;;;;;;;;1677318;84;21048;-66
2022/07/13 01:28:52;;;;;;;3.40;1.80;;;;;;;;;;1691919;84;21068;-66
2022/07/13 01:31:25;;;;;;;1.90;1.50;;;;;;;;;;1738791;81;21091;-66
2022/07/13 01:33:52;;;;;;;2.85;1.87;;;;;;;;;;1737508;81;21000;-66
2022/07/13 01:36:18;;;;;;;2.37;1.55;;;;;;;;;;1739494;81;21085;-66
2022/07/13 01:38:45;;;;;;;2.00;1.50;;;;;;;;;;1737599;81;21076;-65
2022/07/13 01:41:11;;;;;;;2.72;1.60;;;;;;;;;;1730833;83;21040;-65
2022/07/13 01:43:38;;;;;;;2.02;1.70;;;;;;;;;;1731049;83;21032;-65
2022/07/13 01:46:04;;;;;;;4.53;1.77;;;;;;;;;;1732149;83;21044;-65
2022/07/13 01:48:31;;;;;;;2.17;1.65;;;;;;;;;;1730936;83;20985;-65
2022/07/13 01:50:57;;;;;;;3.05;1.70;;;;;;;;;;1731641;81;21543;-65
2022/07/13 01:53:23;;;;;;;2.17;1.70;;;;;;;;;;1703558;83;21569;-66
2022/07/13 01:55:49;;;;;;;2.58;1.70;;;;;;;;;;1734271;83;21025;-65
2022/07/13 01:58:16;;;;;;;3.70;1.70;;;;;;;;;;1741899;81;21088;-66
2022/07/13 02:00:42;;;;;;;3.17;1.65;;;;;;;;;;1736793;81;21070;-66
2022/07/13 02:03:09;;;;;;;2.90;1.45;;;;;;;;;;1737810;80;21139;-66
2022/07/13 02:05:37;;;;;;;5.25;1.70;;;;;;;;;;1742369;81;21085;-65
2022/07/13 02:08:05;;;;;;;1.90;1.57;;;;;;;;;;1739428;81;21571;-65
2022/07/13 02:10:37;;;;;;;1.62;1.52;;;;;;;;;;1739879;81;21019;-67
2022/07/13 02:13:05;;;;;;;2.95;1.55;;;;;;;;;;1696994;83;21034;-67
2022/07/13 02:15:31;;;;;;;2.77;1.90;;;;;;;;;;1725321;82;21567;-67
2022/07/13 02:17:57;;;;;;;4.53;1.80;;;;;;;;;;1720856;82;21020;-67
2022/07/13 02:20:24;;;;;;;2.70;1.50;;;;;;;;;;1723890;82;21072;-67
2022/07/13 02:22:50;;;;;;;3.15;1.60;;;;;;;;;;1728718;82;21044;-68
2022/07/13 02:25:17;;;;;;;2.67;1.80;;;;;;;;;;1724372;82;21093;-67
2022/07/13 02:27:46;;;;;;;2.95;1.70;;;;;;;;;;1721272;82;21089;-67
2022/07/13 02:30:13;;;;;;;1.77;1.67;;;;;;;;;;1722850;82;21025;-67
2022/07/13 02:32:41;;;;;;;2.60;1.80;;;;;;;;;;1723271;82;21099;-67
2022/07/13 02:35:08;;;;;;;3.10;1.80;;;;;;;;;;1720295;82;21644;-67
2022/07/13 02:37:36;;;;;;;3.00;1.67;;;;;;;;;;1720052;82;21696;-67
2022/07/13 02:40:04;;;;;;;2.80;1.75;;;;;;;;;;1720842;82;21790;-68
2022/07/13 02:42:30;;;;;;;1.98;1.70;;;;;;;;;;1722063;82;21531;-68
2022/07/13 02:44:56;;;;;;;5.70;1.80;;;;;;;;;;1723285;82;21062;-67
2022/07/13 02:47:24;;;;;;;2.75;1.70;;;;;;;;;;1720183;82;21027;-67
2022/07/13 02:49:50;;;;;;;1.87;1.77;;;;;;;;;;1704237;82;21071;-68
2022/07/13 02:52:16;;;;;;;2.05;1.70;;;;;;;;;;1726989;82;21026;-67
2022/07/13 02:54:43;;;;;;;2.95;1.50;;;;;;;;;;1721210;82;21181;-67
2022/07/13 02:57:09;;;;;;;2.17;1.60;;;;;;;;;;1721612;82;21749;-67
2022/07/13 02:59:36;;;;;;;3.22;1.60;;;;;;;;;;1701209;82;21072;-66
2022/07/13 03:02:03;;;;;;;3.35;1.82;;;;;;;;;;1727967;82;21107;-67
2022/07/13 03:04:29;;;;;;;2.58;1.60;;;;;;;;;;1724460;82;21137;-67
2022/07/13 03:06:57;;;;;;;3.22;1.65;;;;;;;;;;1718389;82;21029;-67
2022/07/13 03:09:23;;;;;;;3.85;1.75;;;;;;;;;;1726760;82;21036;-67
2022/07/13 03:11:50;;;;;;;3.00;1.70;;;;;;;;;;1729735;82;21017;-67
2022/07/13 03:14:16;;;;;;;3.33;1.47;;;;;;;;;;1722166;82;21044;-68
2022/07/13 03:16:43;;;;;;;2.25;1.82;;;;;;;;;;1725888;82;21119;-67
2022/07/13 03:19:09;;;;;;;2.25;1.70;;;;;;;;;;1722727;82;21508;-68
2022/07/13 03:21:36;;;;;;;2.95;1.80;;;;;;;;;;1723374;82;21026;-68
2022/07/13 03:24:03;;;;;;;1.55;1.45;;;;;;;;;;1721628;82;21050;-67
2022/07/13 03:26:30;;;;;;;1.92;1.60;;;;;;;;;;1716204;82;21492;-67
2022/07/13 03:28:56;;;;;;;3.67;2.00;;;;;;;;;;1731720;81;21070;-67
2022/07/13 03:31:22;;;;;;;1.75;1.50;;;;;;;;;;1734779;81;21088;-68
2022/07/13 03:33:49;;;;;;;2.83;1.77;;;;;;;;;;1731705;81;21009;-68
2022/07/13 03:36:15;;;;;;;2.45;1.60;;;;;;;;;;1740554;81;21063;-66
2022/07/13 03:38:41;;;;;;;1.75;1.62;;;;;;;;;;1733926;81;21109;-67
2022/07/13 03:41:08;;;;;;;2.47;1.37;;;;;;;;;;1736286;81;21067;-67
2022/07/13 03:43:34;;;;;;;2.05;1.50;;;;;;;;;;1699515;82;21043;-67
2022/07/13 03:46:00;;;;;;;1.98;1.40;;;;;;;;;;1735741;81;20976;-67
2022/07/13 03:48:27;;;;;;;3.00;1.62;;;;;;;;;;1739380;81;21079;-67
2022/07/13 03:50:54;;;;;;;5.35;2.27;;;;;;;;;;1733276;81;21089;-67
2022/07/13 03:53:21;;;;;;;2.20;1.70;;;;;;;;;;1736878;81;21038;-67
2022/07/13 03:55:47;;;;;;;2.50;1.70;;;;;;;;;;1741752;81;21032;-67
2022/07/13 03:58:15;;;;;;;2.80;1.72;;;;;;;;;;1708969;82;21052;-67
2022/07/13 04:00:42;;;;;;;1.95;1.70;;;;;;;;;;1688911;84;21081;-67
2022/07/13 04:03:09;;;;;;;2.12;1.55;;;;;;;;;;1735530;80;21811;-67
2022/07/13 04:05:35;;;;;;;1.70;1.60;;;;;;;;;;1735298;81;21075;-67
2022/07/13 04:08:04;;;;;;;1.70;1.60;;;;;;;;;;1736199;81;21055;-67
2022/07/13 04:10:31;;;;;;;1.50;1.40;;;;;;;;;;1740170;81;21543;-67
2022/07/13 04:12:58;;;;;;;1.60;1.40;;;;;;;;;;1732632;81;20987;-67
2022/07/13 04:15:25;;;;;;;2.83;1.70;;;;;;;;;;1735793;81;21039;-67
2022/07/13 04:17:51;;;;;;;4.47;1.60;;;;;;;;;;1737035;81;21052;-67
2022/07/13 04:20:19;;;;;;;1.50;1.40;;;;;;;;;;1740369;81;21049;-67
2022/07/13 04:22:46;;;;;;;2.25;1.50;;;;;;;;;;1731737;81;21029;-66
2022/07/13 04:25:13;;;;;;;3.30;1.40;;;;;;;;;;1736412;81;21044;-66
2022/07/13 04:27:39;;;;;;;1.98;1.62;;;;;;;;;;1740228;81;21059;-68
2022/07/13 04:30:06;;;;;;;1.72;1.42;;;;;;;;;;1738963;81;21051;-67
2022/07/13 04:32:33;;;;;;;3.22;1.50;;;;;;;;;;1736914;81;20992;-67
2022/07/13 04:35:00;;;;;;;2.00;1.52;;;;;;;;;;1737972;81;21077;-67
2022/07/13 04:37:28;;;;;;;1.85;1.50;;;;;;;;;;1737772;81;21029;-67
2022/07/13 04:39:54;;;;;;;2.08;1.50;;;;;;;;;;1734818;81;21172;-67
2022/07/13 04:42:20;;;;;;;2.83;1.60;;;;;;;;;;1737965;81;21517;-67
2022/07/13 04:44:46;;;;;;;2.33;1.50;;;;;;;;;;1746912;81;21014;-67
2022/07/13 04:47:13;;;;;;;1.82;1.40;;;;;;;;;;1736236;81;21072;-67
2022/07/13 04:49:39;;;;;;;1.42;1.32;;;;;;;;;;1709939;82;21092;-66
2022/07/13 04:52:05;;;;;;;1.60;1.50;;;;;;;;;;1740035;81;21016;-66
2022/07/13 04:54:33;;;;;;;3.00;1.55;;;;;;;;;;1738691;81;21544;-67
2022/07/13 04:57:01;;;;;;;4.95;1.80;;;;;;;;;;1736795;81;21079;-67
2022/07/13 04:59:27;;;;;;;1.85;1.67;;;;;;;;;;1737503;81;21056;-66
2022/07/13 05:01:53;;;;;;;1.65;1.55;;;;;;;;;;1712970;82;21064;-67
2022/07/13 05:04:21;;;;;;;1.40;1.30;;;;;;;;;;1699435;83;21128;-66
2022/07/13 05:06:48;;;;;;;1.52;1.42;;;;;;;;;;1649964;84;21099;-67
2022/07/13 05:09:15;;;;;;;3.37;1.70;;;;;;;;;;1650652;86;21059;-65
2022/07/13 05:11:41;;;;;;;1.40;1.30;;;;;;;;;;1648556;86;21072;-67
2022/07/13 05:14:08;;;;;;;1.87;1.52;;;;;;;;;;1695722;83;21628;-66
2022/07/13 05:16:35;;;;;;;4.87;1.95;;;;;;;;;;1665055;85;21559;-66
2022/07/13 05:19:02;;;;;;;1.72;1.62;;;;;;;;;;1656959;85;21036;-66
2022/07/13 05:21:31;;;;;;;1.80;1.40;;;;;;;;;;1658822;85;21093;-70
2022/07/13 05:23:57;;;;;;;2.10;1.40;;;;;;;;;;1661861;85;21076;-67
2022/07/13 05:26:23;;;;;;;6.05;1.50;;;;;;;;;;1668820;85;21123;-67
2022/07/13 05:28:49;;;;;;;3.10;1.60;;;;;;;;;;1662736;85;21594;-67
2022/07/13 05:31:17;;;;;;;1.50;1.40;;;;;;;;;;1690284;84;21320;-66
2022/07/13 05:33:44;;;;;;;1.62;1.50;;;;;;;;;;1679318;84;21035;-66
2022/07/13 05:36:12;;;;;;;2.08;1.60;;;;;;;;;;1700526;83;21068;-65
2022/07/13 05:38:39;;;;;;;2.95;1.50;;;;;;;;;;1699775;83;21568;-67
2022/07/13 05:41:06;;;;;;;1.75;1.60;;;;;;;;;;1626061;86;21072;-66
2022/07/13 05:43:33;;;;;;;1.90;1.62;;;;;;;;;;1695510;83;21101;-66
2022/07/13 05:45:59;;;;;;;3.83;1.60;;;;;;;;;;1685867;84;21021;-67
2022/07/13 05:48:26;;;;;;;1.70;1.40;;;;;;;;;;1685508;83;21661;-65
2022/07/13 05:50:52;;;;;;;1.65;1.52;;;;;;;;;;1683142;83;22545;-67
2022/07/13 05:53:19;;;;;;;1.62;1.40;;;;;;;;;;1665750;85;21043;-66
2022/07/13 05:55:47;;;;;;;1.82;1.60;;;;;;;;;;1685135;84;21066;-68
2022/07/13 05:58:14;;;;;;;1.52;1.40;;;;;;;;;;1687837;84;21035;-67
2022/07/13 06:00:40;;;;;;;2.40;1.90;;;;;;;;;;1669894;84;21060;-67
2022/07/13 06:03:06;;;;;;;4.50;2.37;;;;;;;;;;1648658;85;21117;-66
2022/07/13 06:05:32;;;;;;;5.45;2.50;;;;;;;;;;1655017;85;21064;-67
2022/07/13 06:07:58;;;;;;;4.90;2.65;;;;;;;;;;1719715;82;21028;-66
2022/07/13 06:10:25;;;;;;;3.98;2.20;;;;;;;;;;1719798;82;21587;-66
2022/07/13 06:12:51;;;;;;;5.20;2.40;;;;;;;;;;1721832;82;21606;-68
2022/07/13 06:15:17;;;;;;;1.77;1.65;;;;;;;;;;1718883;82;21108;-68
2022/07/13 06:17:43;;;;;;;1.77;1.50;;;;;;;;;;1740470;81;21100;-68
2022/07/13 06:20:10;;;;;;;1.65;1.30;;;;;;;;;;1737763;81;21107;-68
2022/07/13 06:22:36;;;;;;;2.27;1.60;;;;;;;;;;1709881;82;21407;-68
2022/07/13 06:25:03;;;;;;;2.90;1.80;;;;;;;;;;1702176;83;21066;-66
2022/07/13 06:27:30;;;;;;;2.55;1.55;;;;;;;;;;1679719;84;21455;-66
2022/07/13 06:29:56;;;;;;;2.02;1.50;;;;;;;;;;1701688;82;21016;-68
2022/07/13 06:32:24;;;;;;;3.47;1.50;;;;;;;;;;1686197;84;21095;-69
2022/07/13 06:34:50;;;;;;;3.10;1.60;;;;;;;;;;1737005;81;21002;-66
2022/07/13 06:37:16;;;;;;;1.92;1.60;;;;;;;;;;1736625;81;20985;-68
2022/07/13 06:39:42;;;;;;;1.67;1.50;;;;;;;;;;1737969;81;21023;-70
2022/07/13 06:42:09;;;;;;;2.17;1.50;;;;;;;;;;1737412;81;21103;-67
2022/07/13 06:44:35;;;;;;;5.50;3.40;;;;;;;;;;1742257;81;22464;-68
2022/07/13 06:47:02;;;;;;;2.90;2.10;;;;;;;;;;1739823;81;21073;-69
2022/07/13 06:49:28;;;;;;;2.72;1.82;;;;;;;;;;1731441;81;21070;-67
2022/07/13 06:51:57;;;;;;;1.82;1.50;;;;;;;;;;1738086;81;21081;-67
2022/07/13 06:54:23;;;;;;;1.52;1.42;;;;;;;;;;1733375;81;21035;-67
2022/07/13 06:56:49;;;;;;;2.80;1.62;;;;;;;;;;1713317;82;21055;-67
2022/07/13 06:59:15;;;;;;;2.33;1.50;;;;;;;;;;1739770;81;20985;-68
2022/07/13 07:01:41;;;;;;;1.50;1.40;;;;;;;;;;1737685;81;21091;-68
2022/07/13 07:04:08;;;;;;;1.62;1.52;;;;;;;;;;1747629;81;21064;-64
2022/07/13 07:06:34;;;;;;;15.00;9.38;;;;;;;;;;1717788;82;21084;-66
2022/07/13 07:09:00;;;;;;;8.83;5.83;;;;;;;;;;1707497;82;20996;-66
2022/07/13 07:11:27;;;;;;;6.08;4.42;;;;;;;;;;1711594;82;21028;-70
2022/07/13 07:13:53;;;;;;;4.50;1.75;;;;;;;;;;1711726;82;21047;-67
2022/07/13 07:16:19;;;;;;;3.02;1.80;;;;;;;;;;1704932;83;21551;-68
2022/07/13 07:18:46;;;;;;;1.37;1.25;;;;;;;;;;1714347;82;21093;-70
2022/07/13 07:21:12;;;;;;;1.40;1.30;;;;;;;;;;1731478;82;21080;-70
2022/07/13 07:23:38;;;;;;;1.32;1.22;;;;;;;;;;1730153;82;21063;-69
2022/07/13 07:26:05;;;;;;;1.70;1.40;;;;;;;;;;1737217;82;21002;-68
2022/07/13 07:28:32;;;;;;;1.80;1.50;;;;;;;;;;1732898;82;21073;-70
2022/07/13 07:30:58;;;;;;;1.72;1.47;;;;;;;;;;1725012;82;21513;-69
2022/07/13 07:33:24;;;;;;;1.50;1.40;;;;;;;;;;1725604;82;21024;-68
2022/07/13 07:35:50;;;;;;;1.50;1.40;;;;;;;;;;1741186;82;21014;-67
2022/07/13 07:38:16;;;;;;;1.98;1.20;;;;;;;;;;1738426;82;21114;-67
2022/07/13 07:40:42;;;;;;;1.70;1.40;;;;;;;;;;1740517;82;21573;-67
2022/07/13 07:43:09;;;;;;;1.35;1.25;;;;;;;;;;1741313;82;21027;-69
2022/07/13 07:45:36;;;;;;;1.92;1.50;;;;;;;;;;1730330;82;21072;-69
2022/07/13 07:48:02;;;;;;;1.50;1.40;;;;;;;;;;1741114;82;21078;-69
2022/07/13 07:50:29;;;;;;;1.60;1.50;;;;;;;;;;1737736;82;21038;-68
2022/07/13 07:52:55;;;;;;;23.10;20.65;;;;;;;;;;1740864;82;21070;-69
2022/07/13 07:55:21;;;;;;;27.32;18.48;;;;;;;;;;1715791;82;21043;-68
2022/07/13 07:57:48;;;;;;;8.53;6.17;;;;;;;;;;1717830;82;21031;-69
2022/07/13 08:00:14;;;;;;;3.65;2.45;;;;;;;;;;1691884;84;21047;-67
2022/07/13 08:02:40;;;;;;;1.82;1.65;;;;;;;;;;1688688;84;21191;-67
2022/07/13 08:05:08;;;;;;;2.08;1.70;;;;;;;;;;1679832;85;21028;-66
2022/07/13 08:07:36;;;;;;;1.92;1.72;;;;;;;;;;1724391;82;21076;-68
2022/07/13 08:10:03;;;;;;;1.60;1.30;;;;;;;;;;1726500;83;21068;-69
2022/07/13 08:12:29;;;;;;;1.65;1.55;;;;;;;;;;1727242;83;21048;-66
2022/07/13 08:14:56;;;;;;;1.98;1.50;;;;;;;;;;1726231;83;21070;-66
2022/07/13 08:17:22;;;;;;;2.47;1.45;;;;;;;;;;1712738;82;21040;-66
2022/07/13 08:19:48;;;;;;;1.60;1.50;;;;;;;;;;1726530;83;21508;-67
2022/07/13 08:22:14;;;;;;;1.50;1.40;;;;;;;;;;1727388;83;21590;-69
2022/07/13 08:24:40;;;;;;;1.37;1.27;;;;;;;;;;1727399;83;21048;-69
2022/07/13 08:27:06;;;;;;;1.07;1.07;;;;;;;;;;1727318;83;21492;-67
2022/07/13 08:29:34;;;;;;;2.60;1.20;;;;;;;;;;1733318;82;21019;-68
2022/07/13 08:32:02;;;;;;;1.77;1.35;;;;;;;;;;1726947;83;21495;-67
2022/07/13 08:40:09;;;;;;;1.32;1.25;;;;;;;;;;1728038;82;21035;-66
2022/07/13 08:42:36;;;;;;;1.37;1.27;;;;;;;;;;1740928;82;21000;-67
2022/07/13 08:45:03;;;;;;;1.20;1.10;;;;;;;;;;1725944;82;21559;-67
2022/07/13 08:47:29;;;;;;;1.52;1.22;;;;;;;;;;1726747;82;20999;-66
2022/07/13 08:49:58;;;;;;;50.48;32.30;;;;;;;;;;1728764;82;21085;-72
2022/07/13 08:52:25;;;;;;;18.80;12.10;;;;;;;;;;1739622;82;21570;-72
2022/07/13 08:54:52;;;;;;;7.08;5.95;;;;;;;;;;1739927;82;20993;-69
2022/07/13 08:57:19;;;;;;;2.05;1.80;;;;;;;;;;1709975;84;21020;-68
2022/07/13 08:59:46;;;;;;;1.22;1.12;;;;;;;;;;1710583;83;21118;-66
2022/07/13 09:02:13;;;;;;;2.08;1.00;;;;;;;;;;1710657;82;21609;-66
2022/07/13 09:04:39;;;;;;;1.02;1.02;;;;;;;;;;1710273;84;21578;-68
2022/07/13 09:07:12;;;;;;;1.10;1.00;;;;;;;;;;1707314;82;21064;-68
2022/07/13 09:09:38;;;;;;;2.37;1.98;;;;;;;;;;1708710;82;21047;-68
2022/07/13 09:12:12;;;;;;;1.02;0.95;;;;;;;;;;1727283;82;21019;-68
2022/07/13 09:14:39;;;;;;;1.25;1.00;;;;;;;;;;1749308;82;21024;-67
2022/07/13 09:17:05;;;;;;;1.00;0.88;;;;;;;;;;1738432;82;21440;-68
2022/07/13 09:19:35;;;;;;;1.65;1.15;;;;;;;;;;1757542;82;21060;-68
2022/07/13 09:22:09;;;;;;;1.07;1.00;;;;;;;;;;1752083;82;21051;-68
2022/07/13 09:24:44;;;;;;;1.22;1.10;;;;;;;;;;1744875;82;20995;-68
2022/07/13 09:27:11;;;;;;;3.70;1.12;;;;;;;;;;1728509;82;21539;-66
2022/07/13 09:29:37;;;;;;;1.20;1.10;;;;;;;;;;1733351;82;21495;-66
2022/07/13 09:32:08;;;;;;;0.90;0.90;;;;;;;;;;1724047;83;21052;-66
2022/07/13 09:34:53;;;;;;;0.70;0.70;;;;;;;;;;1723038;83;21524;-66
2022/07/13 09:37:21;;;;;;;0.95;0.95;;;;;;;;;;1721201;83;21012;-65
2022/07/13 09:39:57;;;;;;;0.98;0.78;;;;;;;;;;1722068;82;22163;-67
2022/07/13 09:42:26;;;;;;;1.67;0.85;;;;;;;;;;1716136;82;21567;-65
2022/07/13 09:47:41;;;;;;;2.55;1.30;;;;;;;;;;1743913;82;21017;-65
2022/07/13 09:50:07;;;;;;;1.30;1.12;;;;;;;;;;1747190;82;21088;-66
2022/07/13 09:52:34;;;;;;;1.25;0.93;;;;;;;;;;1756037;82;21044;-66
2022/07/13 09:55:00;;;;;;;1.82;1.00;;;;;;;;;;1729417;82;21224;-67
2022/07/13 09:57:27;;;;;;;1.12;0.90;;;;;;;;;;1725942;82;21094;-66
2022/07/13 09:59:54;;;;;;;0.88;0.88;;;;;;;;;;1735849;82;21001;-65
2022/07/13 10:02:20;;;;;;;0.80;0.80;;;;;;;;;;1731526;82;21554;-65
2022/07/13 10:04:47;;;;;;;1.60;1.30;;;;;;;;;;1726900;82;21028;-68
2022/07/13 10:07:13;;;;;;;1.17;1.17;;;;;;;;;;1728569;82;21042;-66
2022/07/13 10:09:41;;;;;;;1.20;1.10;;;;;;;;;;1726104;82;21019;-68
2022/07/13 10:12:08;;;;;;;1.85;1.22;;;;;;;;;;1721709;83;21581;-69
2022/07/13 10:14:35;;;;;;;0.80;0.80;;;;;;;;;;1725065;83;21065;-68
2022/07/13 10:17:03;;;;;;;0.90;0.90;;;;;;;;;;1732672;82;21024;-68
2022/07/13 10:19:29;;;;;;;1.27;1.17;;;;;;;;;;1736092;82;21037;-68
2022/07/13 10:22:03;;;;;;;2.95;1.07;;;;;;;;;;1725470;82;21091;-68
2022/07/13 10:24:29;;;;;;;0.80;0.80;;;;;;;;;;1729111;82;21015;-68
2022/07/13 10:27:15;;;;;;;0.98;0.90;;;;;;;;;;1730164;82;21038;-67
2022/07/13 10:29:47;;;;;;;1.55;1.32;;;;;;;;;;1730836;82;21038;-68
2022/07/13 10:32:16;;;;;;;1.50;1.30;;;;;;;;;;1749711;82;21042;-67
2022/07/13 10:34:49;;;;;;;1.22;1.00;;;;;;;;;;1746815;82;21049;-66
2022/07/13 10:37:15;;;;;;;1.27;1.17;;;;;;;;;;1746634;82;21016;-66
2022/07/13 10:39:43;;;;;;;2.05;1.17;;;;;;;;;;1730050;82;21104;-66
2022/07/13 10:42:10;;;;;;;2.33;1.37;;;;;;;;;;1733023;82;21041;-66
2022/07/13 10:44:40;;;;;;;1.80;1.60;;;;;;;;;;1727256;82;21056;-66
2022/07/13 10:47:08;;;;;;;1.50;1.30;;;;;;;;;;1729693;82;21087;-65
2022/07/13 10:49:51;;;;;;;1.37;1.27;;;;;;;;;;1725401;82;21015;-68
2022/07/13 10:52:22;;;;;;;1.37;1.10;;;;;;;;;;1745667;82;21034;-68
2022/07/13 10:55:11;;;;;;;1.45;1.30;;;;;;;;;;1727331;82;21621;-69
2022/07/13 10:57:39;;;;;;;1.10;1.00;;;;;;;;;;1739140;82;21034;-69
2022/07/13 11:00:19;;;;;;;12.68;8.73;;;;;;;;;;1729942;82;21076;-68
2022/07/13 11:02:47;;;;;;;14.73;11.53;;;;;;;;;;1726672;83;21079;-68
2022/07/13 11:05:14;;;;;;;6.62;4.87;;;;;;;;;;1721626;83;21082;-69
2022/07/13 11:07:41;;;;;;;1.40;1.30;;;;;;;;;;1741501;81;21068;-66
2022/07/13 11:10:13;;;;;;;1.77;1.50;;;;;;;;;;1725387;82;22090;-65
2022/07/13 11:12:39;;;;;;;1.30;1.20;;;;;;;;;;1710062;82;21091;-64
2022/07/13 11:15:13;;;;;;;1.47;1.30;;;;;;;;;;1719309;82;20996;-65
2022/07/13 11:17:40;;;;;;;1.50;1.30;;;;;;;;;;1752971;82;21008;-65
2022/07/13 11:20:09;;;;;;;1.52;1.27;;;;;;;;;;1743922;82;21100;-65
2022/07/13 11:25:34;;;;;;;3.02;1.32;;;;;;;;;;1722304;82;21043;-66
2022/07/13 11:28:05;;;;;;;1.32;1.10;;;;;;;;;;1737520;82;21536;-66
2022/07/13 11:30:34;;;;;;;1.50;1.15;;;;;;;;;;1748976;82;21871;-65
2022/07/13 11:33:00;;;;;;;2.58;1.20;;;;;;;;;;1723035;82;21003;-67
2022/07/13 11:35:26;;;;;;;1.30;1.20;;;;;;;;;;1728078;82;21047;-66
2022/07/13 11:37:53;;;;;;;1.30;1.20;;;;;;;;;;1733802;82;21020;-65
2022/07/13 11:40:26;;;;;;;1.60;1.17;;;;;;;;;;1744352;82;21096;-65
2022/07/13 11:42:53;;;;;;;;;;;;;;;;;;1756408;82;21067;-65
2022/07/13 11:45:24;;;;;;;1.10;1.00;;;;;;;;;;1757035;82;20134;-65
2022/07/13 11:47:50;;;;;;;1.45;1.10;;;;;;;;;;1741979;82;20980;-65
2022/07/13 11:50:16;;;;;;;1.60;1.10;;;;;;;;;;1725156;83;21016;-66
2022/07/13 11:52:43;;;;;;;5.20;1.10;;;;;;;;;;1735185;82;21099;-66
2022/07/13 11:58:08;;;;;;;1.00;1.00;;;;;;;;;;1802018;79;22940;-66
2022/07/13 12:00:35;;;;;;;1.35;1.10;;;;;;;;;;1754257;81;21048;-67
2022/07/13 12:03:01;;;;;;;2.55;1.30;;;;;;;;;;1728122;81;20996;-65
2022/07/13 12:05:28;;;;;;;1.10;1.00;;;;;;;;;;1721416;81;21069;-67
2022/07/13 12:08:03;;;;;;;1.20;1.10;;;;;;;;;;1730174;81;21036;-66
2022/07/13 12:10:29;;;;;;;0.85;0.85;;;;;;;;;;1735776;82;21117;-65
2022/07/13 12:12:56;;;;;;;82.37;67.27;;;;;;;;;;1728343;83;21039;-65
2022/07/13 12:15:22;;;;;;;31.25;26.15;;;;;;;;;;1724485;82;21582;-66
2022/07/13 12:17:50;;;;;;;7.90;5.53;;;;;;;;;;1718456;82;21103;-66
2022/07/13 12:20:18;;;;;;;1.72;1.55;;;;;;;;;;1718851;82;21019;-68
2022/07/13 12:22:54;;;;;;;2.30;1.60;;;;;;;;;;1728280;81;21000;-68
2022/07/13 12:25:33;;;;;;;1.30;1.20;;;;;;;;;;1716435;82;21612;-66
2022/07/13 12:28:00;;;;;;;1.22;1.10;;;;;;;;;;1725308;83;21087;-66
2022/07/13 12:30:27;;;;;;;2.47;1.30;;;;;;;;;;1724844;83;21059;-67
2022/07/13 12:32:56;;;;;;;2.87;1.00;;;;;;;;;;1725979;82;21045;-66
2022/07/13 12:35:29;;;;;;;2.83;1.20;;;;;;;;;;1724455;81;21100;-64
2022/07/13 12:37:57;;;;;;;1.85;1.17;;;;;;;;;;1726289;81;22301;-64
2022/07/13 12:40:44;;;;;;;1.52;1.10;;;;;;;;;;1724181;82;21012;-67
2022/07/13 12:43:19;;;;;;;2.80;1.10;;;;;;;;;;1727153;82;21104;-64
2022/07/13 12:45:50;;;;;;;2.08;1.02;;;;;;;;;;1716788;82;21049;-67
2022/07/13 12:48:19;;;;;;;1.87;1.27;;;;;;;;;;1714641;82;21117;-65
2022/07/13 12:51:06;;;;;;;1.57;1.47;;;;;;;;;;1659382;84;21635;-65
2022/07/13 12:53:49;;;;;;;1.98;1.55;;;;;;;;;;1678945;85;21622;-66
2022/07/13 12:56:17;;;;;;;5.37;1.60;;;;;;;;;;1703978;83;21037;-65
2022/07/13 12:58:44;;;;;;;1.90;1.37;;;;;;;;;;1689192;85;21089;-65
2022/07/13 13:01:13;;;;;;;1.37;1.20;;;;;;;;;;1689671;83;21132;-67
2022/07/13 13:03:39;;;;;;;1.40;1.30;;;;;;;;;;1688314;85;21045;-67
2022/07/13 13:06:05;;;;;;;1.95;1.30;;;;;;;;;;1690629;83;21088;-67
2022/07/13 13:08:31;;;;;;;1.35;1.25;;;;;;;;;;1691203;85;21072;-66
2022/07/13 13:10:58;;;;;;;1.98;1.30;;;;;;;;;;1677012;85;21068;-67
2022/07/13 13:13:24;;;;;;;2.75;1.70;;;;;;;;;;1679264;85;21053;-66
2022/07/13 13:15:52;;;;;;;4.08;1.50;;;;;;;;;;1668456;85;21297;-65
2022/07/13 13:18:18;;;;;;;1.37;1.27;;;;;;;;;;1665887;85;21072;-65
2022/07/13 13:20:45;;;;;;;1.55;1.45;;;;;;;;;;1672479;84;21080;-67
2022/07/13 13:23:11;;;;;;;1.95;1.50;;;;;;;;;;1667838;85;21484;-67
2022/07/13 13:25:38;;;;;;;1.45;1.35;;;;;;;;;;1667894;85;21084;-67
2022/07/13 13:28:04;;;;;;;1.40;1.30;;;;;;;;;;1688459;85;21606;-66
2022/07/13 13:30:49;;;;;;;2.87;1.80;;;;;;;;;;1682837;83;21033;-66
2022/07/13 13:33:02;;;;;;;1.77;1.50;;;;;;;;;;1680425;83;21530;-68
2022/07/13 13:35:29;;;;;;;14.50;10.95;;;;;;;;;;1670240;84;21013;-67
2022/07/13 13:37:55;;;;;;;5.75;4.10;;;;;;;;;;1673518;84;21034;-66
2022/07/13 13:40:22;;;;;;;3.08;2.25;;;;;;;;;;1668782;84;21068;-67
2022/07/13 13:42:48;;;;;;;3.52;2.80;;;;;;;;;;1665636;85;21076;-67
2022/07/13 13:45:14;;;;;;;1.67;1.50;;;;;;;;;;1666522;85;21092;-67
2022/07/13 13:47:40;;;;;;;1.40;1.30;;;;;;;;;;1668813;85;21060;-67
2022/07/13 13:50:08;;;;;;;1.40;1.30;;;;;;;;;;1665361;85;21053;-64
2022/07/13 13:52:33;;;;;;;1.42;1.25;;;;;;;;;;1669591;84;22088;-66
2022/07/13 13:55:01;;;;;;;1.70;1.40;;;;;;;;;;1674493;84;21055;-64
2022/07/13 13:57:27;;;;;;;3.70;1.30;;;;;;;;;;1661434;85;21190;-65
2022/07/13 13:59:53;;;;;;;1.92;1.47;;;;;;;;;;1667485;84;21118;-66
2022/07/13 14:02:19;;;;;;;1.30;1.20;;;;;;;;;;1675578;85;21595;-67
2022/07/13 14:04:45;;;;;;;1.52;1.37;;;;;;;;;;1671366;84;21080;-66
2022/07/13 14:07:11;;;;;;;2.52;1.37;;;;;;;;;;1676372;84;21070;-66
2022/07/13 14:09:39;;;;;;;44.38;38.58;;;;;;;;;;1668185;84;21620;-64
2022/07/13 14:12:05;;;;;;;22.07;18.67;;;;;;;;;;1669926;84;21083;-63
2022/07/13 14:14:33;;;;;;;14.65;11.08;;;;;;;;;;1663055;85;21014;-65
2022/07/13 14:16:59;;;;;;;3.58;2.60;;;;;;;;;;1666997;84;21100;-67
2022/07/13 14:19:26;;;;;;;1.80;1.60;;;;;;;;;;1668939;84;21053;-67
2022/07/13 14:21:52;;;;;;;2.37;1.55;;;;;;;;;;1667285;85;21556;-65
2022/07/13 14:24:18;;;;;;;4.00;1.80;;;;;;;;;;1666987;85;21092;-67
2022/07/13 14:26:44;;;;;;;1.60;1.50;;;;;;;;;;1670407;84;21107;-66
2022/07/13 14:29:10;;;;;;;3.22;1.60;;;;;;;;;;1671395;84;21619;-66
2022/07/13 14:31:36;;;;;;;3.20;1.50;;;;;;;;;;1669308;84;21161;-67
2022/07/13 14:34:03;;;;;;;2.35;1.50;;;;;;;;;;1663174;85;21088;-67
2022/07/13 14:36:29;;;;;;;1.92;1.52;;;;;;;;;;1665273;84;21077;-67
2022/07/13 14:38:55;;;;;;;1.52;1.40;;;;;;;;;;1660943;85;21517;-68
2022/07/13 14:41:22;;;;;;;2.33;1.67;;;;;;;;;;1668883;84;21092;-65
2022/07/13 14:43:49;;;;;;;2.15;1.55;;;;;;;;;;1668070;85;21016;-67
2022/07/13 14:46:15;;;;;;;2.17;1.57;;;;;;;;;;1660182;84;21620;-68
2022/07/13 14:48:41;;;;;;;2.20;1.67;;;;;;;;;;1667191;84;21023;-68
2022/07/13 14:51:07;;;;;;;1.62;1.52;;;;;;;;;;1661149;85;21068;-68
2022/07/13 14:53:34;;;;;;;2.80;1.60;;;;;;;;;;1667794;84;21045;-68
2022/07/13 14:56:00;;;;;;;1.77;1.47;;;;;;;;;;1664416;84;21574;-68
2022/07/13 14:58:26;;;;;;;1.70;1.50;;;;;;;;;;1664535;84;21517;-68
2022/07/13 15:00:53;;;;;;;1.92;1.65;;;;;;;;;;1666287;85;21077;-69